createdAt,value
2022-12-04T00:04:21.002Z,35.81
2022-12-04T00:09:24.415Z,35.95
2022-12-04T00:14:27.892Z,35.91
2022-12-04T00:19:31.273Z,36.09
2022-12-04T00:24:35.171Z,36.08
2022-12-04T00:29:38.583Z,36.09
2022-12-04T00:34:41.997Z,36.12
2022-12-04T00:39:45.516Z,36.28
2022-12-04T00:44:48.928Z,36.08
2022-12-04T00:49:52.521Z,36.33
2022-12-04T00:54:56.174Z,36.11
2022-12-04T01:00:00.349Z,36.19
2022-12-04T01:05:04.251Z,36.37
2022-12-04T01:10:12.151Z,36.28
2022-12-04T01:15:16.098Z,36.30
2022-12-04T01:20:20.161Z,36.65
2022-12-04T01:25:23.544Z,36.61
2022-12-04T01:30:26.943Z,36.65
2022-12-04T01:35:30.717Z,36.56
2022-12-04T01:40:34.333Z,36.61
2022-12-04T01:45:41.543Z,36.62
2022-12-04T01:50:46.084Z,36.97
2022-12-04T01:55:50.124Z,36.90
2022-12-04T02:00:58.514Z,36.63
2022-12-04T02:06:02.544Z,36.90
2022-12-04T02:11:05.817Z,36.93
2022-12-04T02:16:35.635Z,37.04
2022-12-04T02:21:47.184Z,37.27
2022-12-04T02:26:56.586Z,37.11
2022-12-04T02:32:23.446Z,37.15
2022-12-04T02:37:41.336Z,37.30
2022-12-04T02:43:05.807Z,37.47
2022-12-04T02:48:09.433Z,37.24
2022-12-04T02:53:18.067Z,37.28
2022-12-04T02:58:27.605Z,37.42
2022-12-04T03:03:33.808Z,37.39
2022-12-04T03:08:48.092Z,37.71
2022-12-04T03:14:00.297Z,37.57
2022-12-04T03:19:16.966Z,37.50
2022-12-04T03:24:27.086Z,37.64
2022-12-04T03:29:43.720Z,37.56
2022-12-04T03:34:57.253Z,37.61
2022-12-04T03:40:15.628Z,37.72
2022-12-04T03:45:37.454Z,37.84
2022-12-04T03:50:50.719Z,37.68
2022-12-04T03:56:10.355Z,37.69
2022-12-04T04:01:17.998Z,37.64
2022-12-04T04:06:26.344Z,38.01
2022-12-04T04:11:38.674Z,37.99
2022-12-04T04:17:08.331Z,37.89
2022-12-04T04:22:30.932Z,37.90
2022-12-04T04:27:34.331Z,38.05
2022-12-04T04:32:49.733Z,37.94
2022-12-04T04:38:08.559Z,37.96
2022-12-04T04:43:32.967Z,37.95
2022-12-04T04:48:51.350Z,38.00
2022-12-04T04:53:58.582Z,38.11
2022-12-04T04:59:01.952Z,38.12
2022-12-04T05:04:06.817Z,37.94
2022-12-04T05:09:10.179Z,38.10
2022-12-04T05:14:13.572Z,37.95
2022-12-04T05:19:35.478Z,38.20
2022-12-04T05:24:38.976Z,38.00
2022-12-04T05:29:42.351Z,38.25
2022-12-04T05:34:50.931Z,38.10
2022-12-04T05:39:54.756Z,38.03
2022-12-04T05:44:58.585Z,38.13
2022-12-04T05:50:01.937Z,37.93
2022-12-04T05:55:06.142Z,37.93
2022-12-04T06:00:10.176Z,37.63
2022-12-04T06:05:16.988Z,37.48
2022-12-04T06:10:20.367Z,37.41
2022-12-04T06:15:24.543Z,37.25
2022-12-04T06:20:28.439Z,37.02
2022-12-04T06:25:31.943Z,36.78
2022-12-04T06:30:35.335Z,36.65
2022-12-04T06:35:38.733Z,36.49
2022-12-04T06:40:42.064Z,36.29
2022-12-04T06:45:45.599Z,36.28
2022-12-04T06:50:49.071Z,36.04
2022-12-04T06:55:52.421Z,36.03
2022-12-04T07:00:57.259Z,35.90
2022-12-04T07:06:20.047Z,35.85
2022-12-04T07:11:24.118Z,35.50
2022-12-04T07:16:29.157Z,35.45
2022-12-04T07:21:33.579Z,35.28
2022-12-04T07:26:37.289Z,35.26
2022-12-04T07:31:41.035Z,35.35
2022-12-04T07:36:44.448Z,35.23
2022-12-04T07:41:47.795Z,35.01
2022-12-04T07:46:51.220Z,34.99
2022-12-04T07:51:54.617Z,35.14
2022-12-04T07:56:58.503Z,35.20
2022-12-04T08:02:01.980Z,35.25
2022-12-04T08:07:05.478Z,35.37
2022-12-04T08:12:08.983Z,35.55
2022-12-04T08:17:12.508Z,35.05
2022-12-04T08:22:20.353Z,35.01
2022-12-04T08:27:26.833Z,34.99
2022-12-04T08:32:30.211Z,34.61
2022-12-04T08:37:33.669Z,34.75
2022-12-04T08:42:37.013Z,35.42
2022-12-04T08:47:40.377Z,36.12
2022-12-04T08:52:43.777Z,36.55
2022-12-04T08:57:47.157Z,36.81
2022-12-04T09:02:50.590Z,36.99
2022-12-04T09:07:54.013Z,37.25
2022-12-04T09:12:57.490Z,37.46
2022-12-04T09:18:01.822Z,37.30
2022-12-04T09:23:06.091Z,37.12
2022-12-04T09:28:09.491Z,37.11
2022-12-04T09:33:13.193Z,36.77
2022-12-04T09:38:16.524Z,36.49
2022-12-04T09:43:36.712Z,36.49
2022-12-04T09:48:43.292Z,36.24
2022-12-04T09:53:56.643Z,35.82
2022-12-04T09:59:17.304Z,35.84
2022-12-04T10:04:20.852Z,35.57
2022-12-04T10:09:40.420Z,35.42
2022-12-04T10:15:05.811Z,35.18
2022-12-04T10:20:45.987Z,35.23
2022-12-04T10:25:52.311Z,34.91
2022-12-04T10:30:59.923Z,34.75
2022-12-04T10:36:04.127Z,34.33
2022-12-04T10:41:18.164Z,34.06
2022-12-04T10:46:23.928Z,33.88
2022-12-04T10:51:29.337Z,33.76
2022-12-04T10:56:32.705Z,33.94
2022-12-04T11:01:36.223Z,33.85
2022-12-04T11:06:39.989Z,33.76
2022-12-04T11:11:43.357Z,33.57
2022-12-04T11:16:50.248Z,33.47
2022-12-04T11:21:56.383Z,33.51
2022-12-04T11:27:00.691Z,33.50
2022-12-04T11:32:08.017Z,33.79
2022-12-04T11:37:22.679Z,33.72
2022-12-04T11:42:29.608Z,33.31
2022-12-04T11:47:34.010Z,33.37
2022-12-04T11:52:52.642Z,33.47
2022-12-04T11:58:18.024Z,33.61
2022-12-04T12:03:39.009Z,33.36
2022-12-04T12:08:42.462Z,33.39
2022-12-04T12:14:05.721Z,33.87
2022-12-04T12:19:17.793Z,33.89
2022-12-04T12:24:32.465Z,34.06
2022-12-04T12:29:51.220Z,34.07
2022-12-04T12:34:55.644Z,34.46
2022-12-04T12:39:59.350Z,34.27
2022-12-04T12:45:12.228Z,34.46
2022-12-04T12:50:44.995Z,34.27
2022-12-04T12:56:51.576Z,34.30
2022-12-04T13:02:01.120Z,34.15
2022-12-04T13:07:14.672Z,34.22
2022-12-04T13:12:20.717Z,34.29
2022-12-04T13:17:38.719Z,34.57
2022-12-04T13:23:20.025Z,34.60
2022-12-04T13:28:49.365Z,34.63
2022-12-04T13:34:17.321Z,34.63
2022-12-04T13:39:54.866Z,34.36
2022-12-04T13:45:03.238Z,34.31
2022-12-04T13:50:28.535Z,33.88
2022-12-04T13:55:40.242Z,33.63
2022-12-04T14:00:44.685Z,33.55
2022-12-04T14:05:48.457Z,33.58
2022-12-04T14:11:04.109Z,33.33
2022-12-04T14:16:16.766Z,33.30
2022-12-04T14:21:20.240Z,33.35
2022-12-04T14:27:09.992Z,33.26
2022-12-04T14:31:55.435Z,33.17
2022-12-04T14:37:00.241Z,33.06
2022-12-04T14:42:14.551Z,32.98
2022-12-04T14:47:42.084Z,32.82
2022-12-04T14:53:11.774Z,32.83
2022-12-04T14:58:36.274Z,32.88
2022-12-04T15:03:45.449Z,32.88
2022-12-04T15:09:16.863Z,32.84
2022-12-04T15:14:20.157Z,32.75
2022-12-04T15:19:23.449Z,32.78
2022-12-04T15:24:27.729Z,32.71
2022-12-04T15:29:45.669Z,32.77
2022-12-04T15:35:09.418Z,32.67
2022-12-04T15:40:31.484Z,32.53
2022-12-04T15:45:38.054Z,32.65
2022-12-04T15:50:42.437Z,32.48
2022-12-04T15:55:55.515Z,32.57
2022-12-04T16:01:06.646Z,32.56
2022-12-04T16:06:20.816Z,32.54
2022-12-04T16:11:30.587Z,32.49
2022-12-04T16:16:35.431Z,32.37
2022-12-04T16:21:38.828Z,32.21
2022-12-04T16:26:42.452Z,32.43
2022-12-04T16:31:46.375Z,32.39
2022-12-04T16:36:50.085Z,32.22
2022-12-04T16:41:53.526Z,32.23
2022-12-04T16:46:56.959Z,32.17
2022-12-04T16:52:00.355Z,32.05
2022-12-04T16:57:04.207Z,32.14
2022-12-04T17:02:16.591Z,32.10
2022-12-04T17:07:20.689Z,32.10
2022-12-04T17:12:24.004Z,32.06
2022-12-04T17:17:27.387Z,32.01
2022-12-04T17:22:31.366Z,32.05
2022-12-04T17:27:35.454Z,31.92
2022-12-04T17:32:38.799Z,31.91
2022-12-04T17:37:42.188Z,31.93
2022-12-04T17:42:45.542Z,32.12
2022-12-04T17:47:48.829Z,31.93
2022-12-04T17:52:52.361Z,31.95
2022-12-04T17:57:55.734Z,31.80
2022-12-04T18:02:59.150Z,31.54
2022-12-04T18:08:02.624Z,31.78
2022-12-04T18:13:06.092Z,31.62
2022-12-04T18:18:09.662Z,32.10
2022-12-04T18:25:59.762Z,31.97
2022-12-04T18:31:05.415Z,31.25
2022-12-04T18:36:16.591Z,31.17
2022-12-04T18:41:20.093Z,31.06
2022-12-04T18:46:24.897Z,31.00
2022-12-04T18:51:33.070Z,30.58
2022-12-04T18:56:36.909Z,30.46
2022-12-04T19:01:41.840Z,30.79
2022-12-04T19:06:50.699Z,31.03
2022-12-04T19:11:54.197Z,31.26
2022-12-04T19:16:57.757Z,31.16
2022-12-04T19:22:02.601Z,30.98
2022-12-04T19:27:12.355Z,30.93
2022-12-04T19:32:15.891Z,30.95
2022-12-04T19:37:19.394Z,31.12
2022-12-04T19:42:22.831Z,31.35
2022-12-04T19:47:26.755Z,31.47
2022-12-04T19:52:30.145Z,31.50
2022-12-04T19:57:33.589Z,31.44
2022-12-04T20:02:37.253Z,31.40
2022-12-04T20:07:40.890Z,31.44
2022-12-04T20:12:44.437Z,31.33
2022-12-04T20:17:47.851Z,31.30
2022-12-04T20:22:51.375Z,31.28
2022-12-04T20:27:54.935Z,31.35
2022-12-04T20:32:58.425Z,31.24
2022-12-04T20:38:03.529Z,31.24
2022-12-04T20:43:07.803Z,31.31
2022-12-04T20:48:13.577Z,31.49
2022-12-04T20:53:18.084Z,31.57
2022-12-04T20:58:23.554Z,31.74
2022-12-04T21:03:29.368Z,31.84
2022-12-04T21:08:52.662Z,31.85
2022-12-04T21:14:25.693Z,31.87
2022-12-04T21:19:30.291Z,32.01
2022-12-04T21:24:38.896Z,32.05
2022-12-04T21:29:43.858Z,32.12
2022-12-04T21:34:48.453Z,31.61
2022-12-04T21:39:51.942Z,31.78
2022-12-04T21:44:55.378Z,31.89
2022-12-04T21:50:00.010Z,31.85
2022-12-04T21:55:05.361Z,31.83
2022-12-04T22:00:09.261Z,31.89
2022-12-04T22:05:12.540Z,32.02
2022-12-04T22:10:15.868Z,31.42
2022-12-04T22:15:19.376Z,31.86
2022-12-04T22:20:23.814Z,32.09
2022-12-04T22:25:29.677Z,32.20
2022-12-04T22:30:34.775Z,32.40
2022-12-04T22:35:38.162Z,32.58
2022-12-04T22:45:39.042Z,35.95
2022-12-04T22:50:42.403Z,33.33
2022-12-04T22:55:45.774Z,33.00
2022-12-04T23:00:49.240Z,32.98
2022-12-04T23:05:52.761Z,32.79
2022-12-04T23:10:56.169Z,32.93
2022-12-04T23:16:02.454Z,32.91
2022-12-04T23:21:10.830Z,32.87
2022-12-04T23:26:17.111Z,32.81
2022-12-04T23:31:21.004Z,32.78
2022-12-04T23:36:25.175Z,32.72
2022-12-04T23:41:31.611Z,32.73
2022-12-04T23:46:34.975Z,33.00
2022-12-04T23:51:38.394Z,32.96
2022-12-04T23:56:41.888Z,33.04
